createdAt,value
2019-06-20T03:47:55.168Z,36.17
2019-06-20T03:50:54.034Z,38.20
2019-06-20T03:53:50.054Z,37.30
2019-06-20T03:56:46.092Z,37.67
2019-06-20T03:59:42.228Z,41.88
2019-06-20T04:02:38.845Z,48.20
2019-06-20T04:05:36.498Z,53.05
2019-06-20T04:08:34.915Z,51.35
2019-06-20T04:11:30.982Z,47.80
2019-06-20T04:14:27.093Z,50.23
2019-06-20T04:17:24.751Z,47.60
2019-06-20T04:20:21.627Z,46.88
2019-06-20T04:23:19.922Z,47.43
2019-06-20T04:26:17.211Z,49.10
2019-06-20T04:29:13.556Z,42.88
2019-06-20T04:32:10.472Z,46.23
2019-06-20T04:35:06.669Z,45.40
2019-06-20T04:38:03.519Z,47.65
2019-06-20T04:41:00.670Z,44.70
2019-06-20T04:43:56.209Z,43.73
2019-06-20T04:47:01.162Z,44.85
2019-06-20T04:49:59.171Z,43.83
2019-06-20T04:52:54.461Z,44.80
2019-06-20T04:55:51.167Z,44.03
2019-06-20T04:58:46.786Z,42.90
2019-06-20T05:01:42.058Z,41.23
2019-06-20T05:04:39.466Z,42.10
2019-06-20T05:07:36.558Z,40.98
2019-06-20T05:10:34.100Z,42.58
2019-06-20T05:13:29.852Z,37.67
2019-06-20T05:16:28.415Z,39.95
2019-06-20T05:19:27.137Z,39.20
2019-06-20T05:22:24.618Z,35.17
2019-06-20T05:25:21.397Z,38.92
2019-06-20T05:28:19.388Z,34.85
2019-06-20T05:31:15.185Z,34.90
2019-06-20T05:34:10.332Z,33.42
2019-06-20T05:37:10.537Z,35.83
2019-06-20T05:40:09.760Z,33.18
2019-06-20T05:43:05.585Z,33.00
2019-06-20T05:46:09.337Z,34.25
2019-06-20T05:48:56.540Z,32.78
2019-06-20T05:51:51.751Z,34.53
2019-06-20T05:54:49.366Z,28.47
2019-06-20T05:57:43.857Z,31.65
2019-06-20T06:00:39.329Z,28.30
2019-06-20T06:03:36.255Z,27.62
2019-06-20T06:06:32.254Z,29.82
2019-06-20T06:09:29.584Z,29.63
2019-06-20T06:12:27.386Z,29.40
2019-06-20T06:15:23.757Z,27.75
2019-06-20T06:18:21.355Z,29.18
2019-06-20T06:21:20.502Z,28.07
2019-06-20T06:24:18.479Z,27.05
2019-06-20T06:27:13.724Z,25.32
2019-06-20T06:30:15.618Z,23.05
2019-06-20T06:33:11.570Z,25.72
2019-06-20T06:36:08.257Z,24.07
2019-06-20T06:39:04.045Z,24.00
2019-06-20T06:42:02.337Z,22.17
2019-06-20T06:45:00.332Z,23.38
2019-06-20T06:48:03.905Z,23.12
2019-06-20T06:51:09.812Z,21.12
2019-06-20T06:54:06.743Z,23.27
2019-06-20T06:57:03.617Z,22.50
2019-06-20T07:00:03.382Z,20.55
2019-06-20T07:02:59.847Z,20.72
2019-06-20T07:05:56.296Z,22.40
2019-06-20T07:08:54.563Z,20.02
2019-06-20T07:11:50.268Z,19.98
2019-06-20T07:14:54.435Z,18.62
2019-06-20T07:17:53.194Z,18.87
2019-06-20T07:21:00.339Z,18.40
2019-06-20T07:23:56.220Z,18.35
2019-06-20T07:26:52.061Z,17.42
2019-06-20T07:29:48.358Z,18.37
2019-06-20T07:32:45.212Z,18.25
2019-06-20T07:35:44.625Z,18.40
2019-06-20T07:38:46.194Z,18.30
2019-06-20T07:41:46.282Z,16.82
2019-06-20T07:44:43.823Z,14.80
2019-06-20T07:47:40.603Z,15.45
2019-06-20T07:50:42.127Z,16.60
2019-06-20T07:53:38.729Z,15.48
2019-06-20T07:56:34.586Z,16.15
2019-06-20T07:59:30.389Z,15.40
2019-06-20T08:02:27.532Z,15.58
2019-06-20T08:05:25.165Z,15.03
2019-06-20T08:08:21.665Z,15.35
2019-06-20T08:11:18.370Z,15.15
2019-06-20T08:14:15.086Z,15.40
2019-06-20T08:17:13.980Z,14.10
2019-06-20T08:20:15.967Z,14.40
2019-06-20T08:23:14.371Z,13.93
2019-06-20T08:26:11.054Z,14.58
2019-06-20T08:29:18.652Z,14.00
2019-06-20T08:32:12.289Z,14.58
2019-06-20T08:35:09.568Z,13.35
2019-06-20T08:38:07.543Z,13.65
2019-06-20T08:41:04.769Z,12.82
2019-06-20T08:44:03.856Z,12.28
2019-06-20T08:47:02.273Z,13.15
2019-06-20T08:50:01.410Z,12.80
2019-06-20T08:52:58.482Z,11.90
2019-06-20T08:55:59.313Z,11.55
2019-06-20T08:58:58.474Z,11.70
2019-06-20T09:01:58.683Z,11.78
2019-06-20T09:04:56.250Z,9.78
2019-06-20T09:07:53.570Z,10.63
2019-06-20T09:10:50.677Z,10.53
2019-06-20T09:13:48.063Z,9.73
2019-06-20T09:16:46.272Z,9.93
2019-06-20T09:19:42.950Z,10.58
2019-06-20T09:22:41.871Z,10.20
2019-06-20T09:25:39.848Z,9.20
2019-06-20T09:28:35.779Z,10.30
2019-06-20T09:31:31.247Z,9.68
2019-06-20T09:34:26.095Z,9.53
2019-06-20T09:37:20.841Z,9.15
2019-06-20T09:40:15.561Z,10.13
2019-06-20T09:43:26.790Z,9.63
2019-06-20T09:46:09.970Z,8.60
2019-06-20T09:49:06.678Z,8.25
2019-06-20T09:52:02.022Z,7.92
2019-06-20T09:54:58.294Z,8.18
2019-06-20T09:57:55.889Z,7.37
2019-06-20T10:00:50.843Z,6.87
2019-06-20T10:03:47.326Z,7.25
2019-06-20T10:06:47.413Z,7.47
2019-06-20T10:09:44.063Z,6.85
2019-06-20T10:12:39.256Z,6.55
2019-06-20T10:15:38.892Z,6.40
2019-06-20T10:18:37.189Z,6.40
2019-06-20T10:21:35.526Z,6.70
2019-06-20T10:24:32.987Z,6.15
2019-06-20T10:27:29.392Z,6.42
2019-06-20T10:30:28.679Z,6.03
2019-06-20T10:33:25.297Z,6.00
2019-06-20T10:36:20.698Z,5.83
2019-06-20T10:39:18.494Z,6.17
2019-06-20T10:42:15.494Z,5.95
2019-06-20T10:45:16.329Z,5.90
2019-06-20T10:48:14.771Z,6.37
2019-06-20T10:51:29.897Z,6.20
2019-06-20T10:54:26.838Z,6.40
2019-06-20T10:57:22.598Z,6.10
2019-06-20T11:00:30.930Z,7.65
2019-06-20T11:03:20.795Z,6.58
2019-06-20T11:06:18.286Z,7.42
2019-06-20T11:09:16.473Z,7.95
2019-06-20T11:12:11.674Z,7.80
2019-06-20T11:15:08.135Z,7.65
2019-06-20T11:18:03.106Z,8.25
2019-06-20T11:21:00.162Z,7.65
2019-06-20T11:23:58.807Z,8.15
2019-06-20T11:26:53.961Z,9.08
2019-06-20T11:29:58.439Z,7.97
2019-06-20T11:32:54.839Z,9.18
2019-06-20T11:35:51.672Z,8.83
2019-06-20T11:38:49.183Z,9.80
2019-06-20T11:41:48.431Z,10.20
2019-06-20T11:44:44.694Z,9.03
2019-06-20T11:47:40.636Z,10.08
2019-06-20T11:50:37.782Z,10.45
2019-06-20T11:53:35.279Z,9.98
2019-06-20T11:56:33.695Z,10.68
2019-06-20T11:59:30.990Z,9.88
2019-06-20T12:02:29.170Z,10.70
2019-06-20T12:05:29.226Z,10.25
2019-06-20T12:08:36.628Z,10.53
2019-06-20T12:11:33.177Z,11.35
2019-06-20T12:14:32.809Z,10.38
2019-06-20T12:17:31.263Z,10.78
2019-06-20T12:20:33.416Z,11.73
2019-06-20T12:23:30.492Z,11.05
2019-06-20T12:26:29.015Z,10.58
2019-06-20T12:29:26.785Z,10.45
2019-06-20T12:32:26.107Z,10.68
2019-06-20T12:35:23.484Z,11.22
2019-06-20T12:38:21.513Z,10.60
2019-06-20T12:41:21.681Z,11.00
2019-06-20T12:44:20.732Z,10.25
2019-06-20T12:47:19.700Z,9.95
2019-06-20T12:50:18.833Z,10.68
2019-06-20T12:53:17.012Z,10.13
2019-06-20T12:56:14.324Z,10.65
2019-06-20T12:59:12.155Z,10.35
2019-06-20T13:02:11.147Z,10.35
2019-06-20T13:05:07.846Z,9.83
2019-06-20T13:08:06.190Z,9.98
2019-06-20T13:11:04.965Z,9.93
2019-06-20T13:14:02.203Z,10.60
2019-06-20T13:17:00.641Z,9.93
2019-06-20T13:19:59.508Z,9.60
2019-06-20T13:22:57.323Z,10.25
2019-06-20T13:25:55.364Z,9.68
2019-06-20T13:29:03.317Z,9.60
2019-06-20T13:32:03.499Z,9.68
2019-06-20T13:34:50.365Z,9.48
2019-06-20T13:37:49.680Z,9.13
2019-06-20T13:40:47.248Z,9.93
2019-06-20T13:43:46.588Z,9.40
2019-06-20T13:46:46.455Z,9.55
2019-06-20T13:49:46.062Z,9.25
2019-06-20T13:52:46.820Z,9.60
2019-06-20T13:55:44.078Z,9.43
2019-06-20T13:58:42.818Z,9.45
2019-06-20T14:01:40.191Z,8.60
2019-06-20T14:04:41.583Z,8.88
2019-06-20T14:07:43.590Z,8.20
2019-06-20T14:10:40.908Z,8.50
2019-06-20T14:13:41.098Z,8.55
2019-06-20T14:16:38.655Z,9.03
2019-06-20T14:19:38.490Z,8.38
2019-06-20T14:22:35.398Z,8.80
2019-06-20T14:25:34.357Z,8.20
2019-06-20T14:28:34.198Z,8.45
2019-06-20T14:31:34.472Z,8.58
2019-06-20T14:34:32.915Z,7.97
2019-06-20T14:37:30.468Z,8.18
2019-06-20T14:40:33.933Z,8.13
2019-06-20T14:43:31.564Z,8.20
2019-06-20T14:46:29.555Z,8.95
2019-06-20T14:49:26.858Z,9.00
2019-06-20T14:52:24.834Z,10.13
2019-06-20T14:55:24.733Z,9.18
2019-06-20T14:58:21.523Z,9.10
2019-06-20T15:01:22.724Z,9.75
2019-06-20T15:04:21.371Z,11.38
2019-06-20T15:07:19.674Z,10.48
2019-06-20T15:10:16.364Z,11.40
